createdAt,value
2023-03-22T00:01:44.355Z,3.60
2023-03-22T00:04:11.982Z,3.05
2023-03-22T00:06:39.302Z,3.10
2023-03-22T00:09:08.943Z,2.97
2023-03-22T00:11:36.306Z,2.78
2023-03-22T00:14:04.912Z,2.58
2023-03-22T00:16:32.333Z,3.03
2023-03-22T00:18:59.951Z,3.30
2023-03-22T00:21:27.253Z,2.93
2023-03-22T00:23:55.139Z,3.03
2023-03-22T00:26:28.369Z,2.30
2023-03-22T00:28:55.733Z,2.97
2023-03-22T00:31:26.346Z,2.85
2023-03-22T00:33:56.503Z,2.67
2023-03-22T00:36:23.816Z,2.58
2023-03-22T00:38:52.023Z,3.00
2023-03-22T00:41:21.473Z,2.88
2023-03-22T00:43:51.220Z,3.25
2023-03-22T00:46:20.756Z,2.80
2023-03-22T00:48:48.998Z,3.30
2023-03-22T00:51:16.587Z,2.47
2023-03-22T00:53:44.249Z,2.45
2023-03-22T00:56:15.984Z,2.58
2023-03-22T00:58:44.193Z,3.13
2023-03-22T01:01:14.218Z,3.08
2023-03-22T01:03:42.206Z,3.17
2023-03-22T01:06:09.968Z,3.00
2023-03-22T01:08:39.329Z,2.78
2023-03-22T01:11:07.795Z,4.03
2023-03-22T01:13:37.605Z,3.35
2023-03-22T01:16:05.826Z,3.83
2023-03-22T01:18:36.154Z,3.75
2023-03-22T01:21:03.927Z,4.00
2023-03-22T01:23:32.118Z,3.80
2023-03-22T01:25:59.807Z,4.10
2023-03-22T01:28:31.577Z,4.43
2023-03-22T01:31:01.635Z,4.40
2023-03-22T01:33:28.985Z,4.28
2023-03-22T01:35:57.978Z,4.80
2023-03-22T01:38:27.974Z,5.40
2023-03-22T01:40:55.326Z,5.47
2023-03-22T01:43:26.776Z,5.15
2023-03-22T01:45:54.996Z,4.65
2023-03-22T01:48:26.884Z,4.80
2023-03-22T01:51:03.490Z,4.25
2023-03-22T01:53:36.216Z,4.60
2023-03-22T01:56:07.671Z,4.20
2023-03-22T01:58:37.113Z,4.38
2023-03-22T02:01:06.312Z,4.80
2023-03-22T02:03:43.653Z,4.55
2023-03-22T02:06:12.369Z,5.00
2023-03-22T02:08:43.020Z,4.80
2023-03-22T02:11:14.566Z,4.55
2023-03-22T02:14:05.454Z,4.73
2023-03-22T02:16:42.969Z,4.53
2023-03-22T02:19:42.592Z,4.00
2023-03-22T02:22:39.260Z,4.78
2023-03-22T02:25:42.930Z,4.00
2023-03-22T02:28:21.671Z,3.13
2023-03-22T02:31:17.807Z,3.00
2023-03-22T02:34:25.401Z,2.70
2023-03-22T02:37:15.792Z,2.50
2023-03-22T02:39:49.460Z,2.70
2023-03-22T02:42:27.516Z,2.47
2023-03-22T02:45:02.051Z,3.10
2023-03-22T02:47:39.201Z,3.50
2023-03-22T02:50:14.365Z,3.30
2023-03-22T02:52:46.627Z,3.53
2023-03-22T02:55:20.752Z,3.10
2023-03-22T02:57:50.600Z,3.38
2023-03-22T03:00:19.302Z,3.10
2023-03-22T03:02:51.366Z,2.80
2023-03-22T03:05:20.585Z,2.17
2023-03-22T03:07:53.226Z,2.50
2023-03-22T03:10:23.189Z,2.63
2023-03-22T03:12:50.599Z,2.55
2023-03-22T03:15:20.552Z,2.42
2023-03-22T03:18:05.132Z,2.40
2023-03-22T03:20:44.686Z,2.13
2023-03-22T03:23:21.350Z,2.05
2023-03-22T03:26:02.559Z,1.75
2023-03-22T03:28:39.358Z,1.70
2023-03-22T03:31:16.785Z,1.52
2023-03-22T03:33:51.368Z,1.97
2023-03-22T03:36:21.029Z,1.73
2023-03-22T03:38:52.381Z,2.03
2023-03-22T03:41:24.755Z,2.17
2023-03-22T03:43:54.458Z,2.30
2023-03-22T03:46:23.381Z,2.10
2023-03-22T03:48:53.031Z,4.35
2023-03-22T03:51:20.570Z,3.00
2023-03-22T03:53:48.003Z,2.60
2023-03-22T03:56:15.207Z,1.98
2023-03-22T03:58:45.823Z,2.80
2023-03-22T04:01:13.601Z,2.17
2023-03-22T04:03:41.522Z,1.98
2023-03-22T04:06:09.520Z,2.00
2023-03-22T04:08:38.957Z,2.03
2023-03-22T04:11:06.862Z,1.90
2023-03-22T04:13:34.396Z,1.90
2023-03-22T04:16:03.162Z,2.08
2023-03-22T04:18:32.523Z,2.35
2023-03-22T04:20:59.902Z,2.60
2023-03-22T04:23:27.250Z,2.63
2023-03-22T04:25:54.921Z,3.88
2023-03-22T04:28:24.090Z,4.68
2023-03-22T04:30:52.592Z,5.88
2023-03-22T04:33:23.312Z,4.55
2023-03-22T04:35:57.168Z,5.00
2023-03-22T04:38:25.937Z,4.05
2023-03-22T04:40:53.409Z,4.32
2023-03-22T04:43:23.929Z,4.10
2023-03-22T04:45:54.818Z,4.15
2023-03-22T04:48:24.397Z,3.80
2023-03-22T04:50:53.528Z,3.80
2023-03-22T04:53:28.358Z,3.63
2023-03-22T04:55:58.463Z,3.38
2023-03-22T04:58:27.377Z,3.30
2023-03-22T05:00:58.641Z,3.17
2023-03-22T05:03:27.431Z,3.80
2023-03-22T05:05:56.420Z,5.45
2023-03-22T05:08:25.135Z,5.68
2023-03-22T06:40:47.865Z,5.70
2023-03-22T06:43:15.901Z,6.03
2023-03-22T06:45:50.679Z,5.95
2023-03-22T06:48:18.238Z,6.93
2023-03-22T06:50:46.506Z,7.38
2023-03-22T06:53:14.204Z,6.57
2023-03-22T06:55:41.792Z,6.90
2023-03-22T06:58:13.240Z,5.57
2023-03-22T07:01:03.920Z,5.55
2023-03-22T07:03:31.465Z,6.20
2023-03-22T07:06:02.530Z,7.10
2023-03-22T07:08:29.997Z,6.80
2023-03-22T07:10:57.377Z,6.38
2023-03-22T07:13:27.219Z,6.22
2023-03-22T07:15:56.608Z,6.90
2023-03-22T07:18:24.067Z,7.95
2023-03-22T07:20:51.699Z,8.03
2023-03-22T07:23:20.244Z,10.00
2023-03-22T07:25:49.345Z,8.02
2023-03-22T07:28:16.820Z,7.85
2023-03-22T07:30:45.744Z,7.50
2023-03-22T07:33:13.379Z,7.23
2023-03-22T07:35:41.257Z,6.55
2023-03-22T07:38:08.653Z,7.65
2023-03-22T07:40:37.070Z,6.85
2023-03-22T07:43:05.776Z,7.20
2023-03-22T07:45:36.508Z,6.87
2023-03-22T07:48:14.723Z,7.88
2023-03-22T07:50:48.677Z,7.00
2023-03-22T07:53:17.776Z,9.00
2023-03-22T07:55:47.814Z,9.77
2023-03-22T07:58:20.597Z,12.03
2023-03-22T08:00:58.791Z,10.68
2023-03-22T08:03:32.097Z,10.98
2023-03-22T08:08:54.860Z,10.52
2023-03-22T08:11:31.616Z,12.03
2023-03-22T08:14:02.068Z,11.95
2023-03-22T08:16:51.203Z,11.25
2023-03-22T08:19:33.371Z,9.35
2023-03-22T08:22:01.416Z,6.95
2023-03-22T08:24:38.054Z,6.23
2023-03-22T08:27:34.842Z,7.20
2023-03-22T08:30:03.183Z,6.50
2023-03-22T08:32:33.916Z,6.50
2023-03-22T08:35:04.512Z,4.72
2023-03-22T08:37:53.821Z,5.40
2023-03-22T08:40:25.807Z,4.30
2023-03-22T08:42:53.576Z,4.88
2023-03-22T08:45:21.924Z,5.03
2023-03-22T08:47:49.546Z,4.50
2023-03-22T08:50:18.417Z,4.43
2023-03-22T08:52:45.879Z,4.40
2023-03-22T08:55:14.398Z,5.20
2023-03-22T08:57:41.777Z,5.28
2023-03-22T09:00:13.889Z,5.10
2023-03-22T09:02:41.718Z,4.37
2023-03-22T09:05:10.169Z,4.78
2023-03-22T09:07:39.001Z,4.80
2023-03-22T09:10:07.804Z,4.97
2023-03-22T09:12:35.501Z,5.25
2023-03-22T09:15:03.817Z,4.80
2023-03-22T09:17:31.735Z,4.72
2023-03-22T09:20:11.623Z,4.53
2023-03-22T09:22:41.946Z,3.90
2023-03-22T09:25:12.572Z,3.70
2023-03-22T09:27:41.090Z,4.13
2023-03-22T09:30:09.530Z,4.30
2023-03-22T09:32:37.083Z,3.15
2023-03-22T09:35:06.619Z,4.30
2023-03-22T09:37:34.492Z,3.30
2023-03-22T09:40:06.133Z,3.63
2023-03-22T09:42:38.475Z,3.25
2023-03-22T09:45:13.059Z,3.63
2023-03-22T09:47:45.490Z,2.80
2023-03-22T09:50:23.365Z,2.90
2023-03-22T09:52:51.702Z,2.83
2023-03-22T09:55:25.368Z,2.70
2023-03-22T09:58:02.475Z,3.17
2023-03-22T10:00:41.399Z,2.70
2023-03-22T10:03:21.359Z,2.78
2023-03-22T10:05:53.296Z,2.77
2023-03-22T10:08:31.798Z,2.20
2023-03-22T10:11:01.571Z,2.45
2023-03-22T10:13:35.180Z,3.10
2023-03-22T10:16:08.730Z,2.70
2023-03-22T10:18:38.420Z,2.10
2023-03-22T10:21:08.590Z,2.25
2023-03-22T10:23:40.878Z,2.10
2023-03-22T10:26:19.223Z,2.25
2023-03-22T10:28:59.865Z,2.45
2023-03-22T10:31:29.336Z,2.33
2023-03-22T10:33:59.890Z,1.65
2023-03-22T10:36:31.606Z,2.42
2023-03-22T10:39:04.163Z,3.28
2023-03-22T10:41:34.644Z,3.15
2023-03-22T10:44:03.760Z,3.10
2023-03-22T10:46:37.321Z,3.03
2023-03-22T10:49:06.340Z,3.45
2023-03-22T10:51:39.850Z,3.40
2023-03-22T10:54:21.679Z,3.75
2023-03-22T10:56:50.763Z,3.70
2023-03-22T10:59:45.146Z,4.15
2023-03-22T11:02:19.316Z,4.15
2023-03-22T11:04:53.857Z,4.05
2023-03-22T11:07:35.779Z,4.60
2023-03-22T11:10:21.921Z,6.43
2023-03-22T11:12:53.622Z,4.40
2023-03-22T11:15:28.619Z,5.30
2023-03-22T11:18:01.260Z,4.35
2023-03-22T11:20:31.113Z,3.72
2023-03-22T11:23:00.933Z,4.33
2023-03-22T11:25:30.982Z,3.70
2023-03-22T11:28:10.420Z,3.80
2023-03-22T11:30:39.543Z,4.43
2023-03-22T11:37:18.082Z,3.60
2023-03-22T11:39:49.799Z,2.90
2023-03-22T11:42:20.570Z,3.83
2023-03-22T11:44:53.033Z,3.40
2023-03-22T11:47:20.780Z,3.58
2023-03-22T11:49:54.699Z,3.80
2023-03-22T11:52:24.489Z,4.00
2023-03-22T11:54:52.661Z,3.72
2023-03-22T11:57:23.144Z,4.13
2023-03-22T11:59:58.361Z,4.28
2023-03-22T12:02:28.744Z,4.20
2023-03-22T12:05:01.980Z,3.80
2023-03-22T12:07:31.397Z,3.80
2023-03-22T12:10:04.163Z,3.55
2023-03-22T12:12:36.210Z,3.50
2023-03-22T12:15:11.145Z,4.07
2023-03-22T12:17:44.588Z,4.35
2023-03-22T12:20:19.854Z,3.70
2023-03-22T12:23:13.154Z,4.28
2023-03-22T12:25:43.194Z,4.28
2023-03-22T12:28:16.422Z,4.10
2023-03-22T12:30:48.344Z,3.95
2023-03-22T12:33:20.918Z,3.75
2023-03-22T12:35:50.534Z,4.65
2023-03-22T12:38:27.872Z,3.90
2023-03-22T12:40:58.032Z,4.50
2023-03-22T12:43:39.739Z,3.88
2023-03-22T12:46:15.690Z,3.50
2023-03-22T12:48:46.704Z,3.67
2023-03-22T12:51:15.045Z,3.83
2023-03-22T12:53:45.603Z,3.50
2023-03-22T12:56:15.947Z,3.67
2023-03-22T12:58:50.124Z,3.50
2023-03-22T13:01:25.637Z,3.38
2023-03-22T13:03:54.991Z,3.72
2023-03-22T13:06:34.932Z,3.80
2023-03-22T13:09:16.337Z,3.55
2023-03-22T13:11:45.789Z,3.60
2023-03-22T13:14:53.169Z,4.30
2023-03-22T13:17:39.456Z,3.78
2023-03-22T13:20:31.292Z,3.10
2023-03-22T13:23:02.907Z,3.55
2023-03-22T13:25:34.037Z,2.95
2023-03-22T13:28:03.779Z,3.22
2023-03-22T13:30:38.899Z,2.58
2023-03-22T13:33:21.339Z,2.80
2023-03-22T13:35:52.845Z,3.20
2023-03-22T13:38:22.207Z,2.95
2023-03-22T13:40:59.695Z,3.00
2023-03-22T13:43:33.274Z,3.30
2023-03-22T13:46:14.826Z,3.17
2023-03-22T13:48:53.852Z,3.38
2023-03-22T13:51:30.517Z,3.33
2023-03-22T13:54:03.667Z,3.38
2023-03-22T13:56:53.177Z,3.22
2023-03-22T13:59:25.678Z,3.27
2023-03-22T14:02:04.873Z,2.95
2023-03-22T14:04:40.688Z,2.70
2023-03-22T14:07:21.886Z,3.03
2023-03-22T14:09:51.749Z,3.40
2023-03-22T14:12:24.218Z,3.00
2023-03-22T14:14:57.168Z,2.97
2023-03-22T14:17:34.794Z,3.40
2023-03-22T14:20:11.217Z,3.40
